This is the latest recevied weather packets stored in our database for station/object OE-11061. If no packets are shown the sender has not sent any weather packets the latest 10 day(s).
| Time | Temp. | Humidity | Pressure | Rain* | Wind** | Luminosity | Snow |
|---|---|---|---|---|---|---|---|
| 1787861494 | 23.89° C | 64% | 1012 hPa | 0 mm | - | 0 W/m² | - |
| 1787861121 | 23.89° C | 64% | 1012 hPa | 0 mm | - | 0 W/m² | - |
| 1787860521 | 23.89° C | 65% | 1011.9 hPa | 0 mm | - | 0 W/m² | - |
| 1787859694 | 23.89° C | 65% | 1011.9 hPa | 0 mm | - | 0 W/m² | - |
| 1787859321 | 23.89° C | 65% | 1011.9 hPa | 0 mm | - | 0 W/m² | - |
| 1787858721 | 24.44° C | 63% | 1011.8 hPa | 0 mm | - | 0 W/m² | - |
| 1787857894 | 24.44° C | 64% | 1011.8 hPa | 0 mm | - | 0 W/m² | - |
| 1787857521 | 24.44° C | 62% | 1011.8 hPa | 0 mm | - | 0 W/m² | - |
| 1787856921 | 24.44° C | 64% | 1011.7 hPa | 0 mm | - | 0 W/m² | - |
| 1787856094 | 23.89° C | 65% | 1011.8 hPa | 0 mm | - | 0 W/m² | - |
| 1787855720 | 23.89° C | 68% | 1012 hPa | 0 mm | - | 0 W/m² | - |
| 1787855121 | 23.89° C | 68% | 1012.1 hPa | 0 mm | - | 0 W/m² | - |
| 1787854294 | 23.89° C | 66% | 1012.1 hPa | 0 mm | - | 0 W/m² | - |
| 1787853921 | 24.44° C | 67% | 1011.9 hPa | 0 mm | - | 7 W/m² | - |
| 1787852733 | 25° C | 67% | 1011.7 hPa | 0 mm | - | 22 W/m² | - |
| 1787852120 | 25.56° C | 64% | 1011.6 hPa | 0 mm | - | 37 W/m² | - |
| 1787851521 | 25.56° C | 64% | 1011.6 hPa | 0 mm | - | 52 W/m² | - |
| 1787850694 | 25.56° C | 66% | 1011.5 hPa | 0 mm | - | 60 W/m² | - |
| 1787850321 | 26.11° C | 66% | 1011.6 hPa | 0 mm | - | 82 W/m² | - |
| 1787849721 | 26.11° C | 65% | 1011.6 hPa | 0 mm | - | 97 W/m² | - |
| 1787848894 | 26.11° C | 66% | 1011.6 hPa | 0 mm | - | 90 W/m² | - |
| 1787848521 | 26.67° C | 65% | 1011.5 hPa | 0 mm | - | 105 W/m² | - |
| 1787847921 | 26.67° C | 64% | 1011.6 hPa | 0 mm | - | 127 W/m² | - |
| 1787847094 | 27.22° C | 64% | 1011.6 hPa | 0 mm | - | 142 W/m² | - |
| 1787846721 | 27.22° C | 62% | 1011.6 hPa | 0 mm | - | 134 W/m² | - |
* Rain latest hour (hover to see other rain measurements)
** Current wind speed in m/s (hover to see current wind gust speed)